Villa Ridge, IL (62996)

4:06 PM CST on January 25, 2015 (GMT -0600)
Cairo Regional | Change Station
CLOSE
Current Station
Airport
Location: Cairo,
Elevation: 322 ft
Nearby Weather Stations

Elev 322 ft 37.06 °N, 89.22 °W | Updated 11 minutes ago

Rain
Rain
46 °F
Feels Like 43 °F
N
6
Wind Variable Wind from SSW

Today
High -- | Low -- °F
--% Chance of Precip.
Yesterday
High -- | Low -- °F
Precip. -- in
7:04 AM 5:13 PM
Waxing Crescent, 36% visible
Pressure 29.66 in
Visibility 10.0 miles
Clouds Scattered Clouds 3300 ft
Overcast 4100 ft
Windchill 43 °F
Dew Point 46 °F
Humidity 100%
Rainfall 0.05 in
Snow Depth Not available.
UV 0 out of 12
Pollen .10 out of 12
Air Quality Not available.
Flu Activity Not available.
METAR KCIR 252155Z AUTO 21005KT 10SM -RA SCT033 OVC041 08/08 A2966 RMK AO2 P0001 T00770077

More Conditions Fewer Conditions

Pressure 29.66 in
Visibility 10.0 miles
Clouds Scattered Clouds 3300 ft
Overcast 4100 ft
Windchill 43 °F
Dew Point 46 °F
Humidity 100%
Rainfall 0.05 in
Snow Depth Not available.
UV 0 out of 12
Pollen .10 out of 12
Air Quality Not available.
Flu Activity Not available.
METAR KCIR 252155Z AUTO 21005KT 10SM -RA SCT033 OVC041 08/08 A2966 RMK AO2 P0001 T00770077

More Conditions Fewer Conditions

10-Day Weather Forecast

Almanac

Astronomy

Jan. 25, 2015 Rise Set
Actual Time
Civil Twilight
Nautical Twilight
Astronomical Twilight
Moon
Length of Visible Light
Length of Day
Tomorrow will be .
, % of the Moon is Illuminated

Today's Extremes

State Highs State Lows

Community

WunderPhotos

Upload Photos

1,790,070 photos uploaded!

WunderBlogs® & News

Nearby

Air Quality

  Air Quality AQ Index Pollutant
Not available.

Snow Depth

Station Depth Elevation

Earthquake Activity

City Distance Mag. Time & Date
Minimum magnitude displayed is 2.5.

Coastal Water Temperatures

Place Temperature

Nearby Weather Stations